createdAt,value
2023-02-25T00:01:54.389Z,92.75
2023-02-25T00:04:29.046Z,93.92
2023-02-25T00:06:57.263Z,94.00
2023-02-25T00:09:25.306Z,94.58
2023-02-25T00:11:53.603Z,94.87
2023-02-25T00:14:21.466Z,94.20
2023-02-25T00:16:50.223Z,95.48
2023-02-25T00:19:18.113Z,95.13
2023-02-25T00:21:46.353Z,93.52
2023-02-25T00:24:16.817Z,92.95
2023-02-25T00:26:45.543Z,91.71
2023-02-25T00:29:15.192Z,91.19
2023-02-25T00:31:43.807Z,91.45
2023-02-25T00:34:11.855Z,90.54
2023-02-25T00:36:40.194Z,89.85
2023-02-25T00:39:09.473Z,90.30
2023-02-25T00:41:37.828Z,89.74
2023-02-25T00:44:05.828Z,89.20
2023-02-25T00:46:34.946Z,89.98
2023-02-25T00:49:03.077Z,89.29
2023-02-25T00:51:32.797Z,88.94
2023-02-25T00:54:00.917Z,89.17
2023-02-25T00:56:29.099Z,88.62
2023-02-25T00:58:56.976Z,89.17
2023-02-25T01:01:28.288Z,89.16
2023-02-25T01:03:57.504Z,90.42
2023-02-25T01:06:27.779Z,91.01
2023-02-25T01:08:57.072Z,91.46
2023-02-25T01:11:30.978Z,91.28
2023-02-25T01:14:02.199Z,91.70
2023-02-25T01:16:32.973Z,92.14
2023-02-25T01:19:05.146Z,92.14
2023-02-25T01:21:37.193Z,93.43
2023-02-25T01:24:23.762Z,93.32
2023-02-25T01:26:54.782Z,93.08
2023-02-25T01:29:48.891Z,93.69
2023-02-25T01:32:18.117Z,93.87
2023-02-25T01:34:46.011Z,93.59
2023-02-25T01:37:15.942Z,92.38
2023-02-25T01:39:43.773Z,92.44
2023-02-25T01:42:16.269Z,92.65
2023-02-25T01:45:23.498Z,96.05
2023-02-25T01:48:03.698Z,95.21
2023-02-25T01:50:42.277Z,96.90
2023-02-25T01:53:10.530Z,96.57
2023-02-25T01:55:41.097Z,96.57
2023-02-25T01:58:12.532Z,96.26
2023-02-25T02:00:41.239Z,95.64
2023-02-25T02:03:17.282Z,95.92
2023-02-25T02:06:00.030Z,96.37
2023-02-25T02:08:29.060Z,95.09
2023-02-25T02:10:58.098Z,94.93
2023-02-25T02:13:26.356Z,94.57
2023-02-25T02:16:19.328Z,95.42
2023-02-25T02:18:57.378Z,95.14
2023-02-25T02:21:57.448Z,96.08
2023-02-25T02:24:47.661Z,95.32
2023-02-25T02:27:27.677Z,96.41
2023-02-25T02:30:26.310Z,94.64
2023-02-25T02:33:04.577Z,93.87
2023-02-25T02:36:00.641Z,97.04
2023-02-25T02:38:42.428Z,100.00
2023-02-25T02:41:14.508Z,100.00
2023-02-25T02:43:52.675Z,100.00
2023-02-25T02:46:29.407Z,100.00
2023-02-25T02:49:04.621Z,100.00
2023-02-25T02:51:40.144Z,100.00
2023-02-25T02:54:12.182Z,100.00
2023-02-25T02:56:44.452Z,100.00
2023-02-25T02:59:28.386Z,100.00
2023-02-25T03:02:10.200Z,100.00
2023-02-25T03:04:42.067Z,100.00
2023-02-25T03:07:12.952Z,100.00
2023-02-25T03:09:50.648Z,100.00
2023-02-25T03:12:19.731Z,100.00
2023-02-25T03:14:48.697Z,100.00
2023-02-25T03:17:26.460Z,100.00
2023-02-25T03:20:28.449Z,100.00
2023-02-25T03:23:01.821Z,100.00
2023-02-25T03:25:38.374Z,100.00
2023-02-25T03:28:21.867Z,100.00
2023-02-25T03:31:08.222Z,100.00
2023-02-25T03:33:48.994Z,100.00
2023-02-25T03:36:26.579Z,100.00
2023-02-25T03:39:03.071Z,100.00
2023-02-25T03:41:36.724Z,100.00
2023-02-25T03:44:14.359Z,100.00
2023-02-25T03:46:45.012Z,100.00
2023-02-25T03:49:19.672Z,100.00
2023-02-25T03:51:50.973Z,100.00
2023-02-25T03:54:19.547Z,100.00
2023-02-25T03:56:51.547Z,100.00
2023-02-25T03:59:26.378Z,100.00
2023-02-25T04:01:56.823Z,100.00
2023-02-25T04:04:25.296Z,100.00
2023-02-25T04:06:53.223Z,100.00
2023-02-25T04:09:21.624Z,100.00
2023-02-25T04:11:49.493Z,100.00
2023-02-25T04:14:18.746Z,100.00
2023-02-25T04:16:47.609Z,100.00
2023-02-25T04:19:15.801Z,100.00
2023-02-25T04:21:44.042Z,100.00
2023-02-25T04:24:12.125Z,100.00
2023-02-25T04:26:39.955Z,100.00
2023-02-25T04:29:08.424Z,100.00
2023-02-25T04:31:36.291Z,100.00
2023-02-25T04:34:04.413Z,100.00
2023-02-25T04:36:35.036Z,100.00
2023-02-25T04:39:05.712Z,100.00
2023-02-25T04:41:36.046Z,100.00
2023-02-25T04:44:06.874Z,100.00
2023-02-25T04:46:40.247Z,100.00
2023-02-25T04:49:09.622Z,100.00
2023-02-25T04:51:38.869Z,100.00
2023-02-25T04:54:06.991Z,100.00
2023-02-25T04:56:34.727Z,100.00
2023-02-25T04:59:02.873Z,100.00
2023-02-25T05:01:32.708Z,100.00
2023-02-25T05:04:00.889Z,100.00
2023-02-25T05:06:28.713Z,100.00
2023-02-25T05:08:57.906Z,100.00
2023-02-25T05:11:28.314Z,99.90
2023-02-25T05:13:57.621Z,100.00
2023-02-25T05:16:26.860Z,99.24
2023-02-25T05:18:55.556Z,99.84
2023-02-25T05:21:25.493Z,100.00
2023-02-25T05:23:54.438Z,98.93
2023-02-25T05:26:24.784Z,98.78
2023-02-25T05:28:55.433Z,100.00
2023-02-25T05:31:25.116Z,100.00
2023-02-25T05:33:53.961Z,100.00
2023-02-25T05:36:24.022Z,100.00
2023-02-25T05:38:55.476Z,100.00
2023-02-25T05:41:23.304Z,100.00
2023-02-25T05:43:51.420Z,100.00
2023-02-25T05:46:19.159Z,100.00
2023-02-25T05:48:47.307Z,100.00
2023-02-25T05:51:18.458Z,100.00
2023-02-25T05:53:48.154Z,100.00
2023-02-25T05:56:19.179Z,100.00
2023-02-25T05:58:48.720Z,100.00
2023-02-25T06:01:22.938Z,100.00
2023-02-25T06:03:58.873Z,100.00
2023-02-25T06:06:29.516Z,100.00
2023-02-25T06:08:58.269Z,100.00
2023-02-25T06:11:29.312Z,100.00
2023-02-25T06:13:58.999Z,100.00
2023-02-25T06:16:33.132Z,100.00
2023-02-25T06:19:02.063Z,98.89
2023-02-25T06:21:30.887Z,99.82
2023-02-25T06:23:59.247Z,100.00
2023-02-25T06:26:27.273Z,100.00
2023-02-25T06:28:56.732Z,100.00
2023-02-25T06:31:25.388Z,98.11
2023-02-25T06:33:55.211Z,97.45
2023-02-25T06:36:23.647Z,97.08
2023-02-25T06:38:51.914Z,95.83
2023-02-25T06:41:21.454Z,95.37
2023-02-25T06:43:52.356Z,94.73
2023-02-25T06:46:24.408Z,94.27
2023-02-25T06:48:53.625Z,93.25
2023-02-25T06:51:22.238Z,92.19
2023-02-25T06:53:51.406Z,92.55
2023-02-25T06:56:20.612Z,93.47
2023-02-25T06:58:48.811Z,92.92
2023-02-25T07:01:17.092Z,91.92
2023-02-25T07:03:45.322Z,92.46
2023-02-25T07:06:16.635Z,91.99
2023-02-25T07:08:46.066Z,91.47
2023-02-25T07:11:19.640Z,90.94
2023-02-25T07:13:49.275Z,90.51
2023-02-25T07:16:17.872Z,89.77
2023-02-25T07:18:46.135Z,90.07
2023-02-25T07:21:16.121Z,89.44
2023-02-25T07:23:44.988Z,88.27
2023-02-25T07:26:14.382Z,87.76
2023-02-25T07:28:43.754Z,88.36
2023-02-25T07:31:14.358Z,86.49
2023-02-25T07:33:43.420Z,85.51
2023-02-25T07:36:12.442Z,84.74
2023-02-25T07:38:41.234Z,85.58
2023-02-25T07:41:12.316Z,85.71
2023-02-25T07:43:41.161Z,85.86
2023-02-25T07:46:09.839Z,85.53
2023-02-25T07:48:37.996Z,84.19
2023-02-25T07:51:18.814Z,84.63
2023-02-25T07:53:48.177Z,84.08
2023-02-25T07:56:16.953Z,84.24
2023-02-25T07:58:45.514Z,83.12
2023-02-25T08:01:20.091Z,82.69
2023-02-25T08:03:49.328Z,82.53
2023-02-25T08:06:17.174Z,83.35
2023-02-25T08:08:45.682Z,83.27
2023-02-25T08:11:15.040Z,83.09
2023-02-25T08:13:43.447Z,83.87
2023-02-25T08:16:14.502Z,85.82
2023-02-25T08:18:43.036Z,86.04
2023-02-25T08:21:12.601Z,86.08
2023-02-25T08:23:41.289Z,83.71
2023-02-25T08:26:12.394Z,84.19
2023-02-25T08:28:40.786Z,85.18
2023-02-25T08:31:12.126Z,84.74
2023-02-25T08:33:43.748Z,83.38
2023-02-25T08:36:20.876Z,84.06
2023-02-25T08:38:50.446Z,82.69
2023-02-25T08:41:20.104Z,80.83
2023-02-25T08:43:52.204Z,79.77
2023-02-25T08:46:22.689Z,78.17
2023-02-25T08:48:53.134Z,76.46
2023-02-25T08:51:23.621Z,74.95
2023-02-25T08:53:52.481Z,74.69
2023-02-25T08:56:20.480Z,74.38
2023-02-25T08:58:48.705Z,76.45
2023-02-25T09:01:18.055Z,75.26
2023-02-25T09:03:54.197Z,74.65
2023-02-25T09:06:24.948Z,74.85
2023-02-25T09:08:54.792Z,74.22
2023-02-25T09:11:24.282Z,74.01
2023-02-25T09:13:54.425Z,74.45
2023-02-25T09:16:22.418Z,73.91
2023-02-25T09:18:51.915Z,73.40
2023-02-25T09:21:21.508Z,71.54
2023-02-25T09:23:53.352Z,71.04
2023-02-25T09:26:22.039Z,69.54
2023-02-25T09:28:50.918Z,69.09
2023-02-25T09:31:19.576Z,71.10
2023-02-25T09:33:48.146Z,71.06
2023-02-25T09:36:18.457Z,72.80
2023-02-25T09:38:48.722Z,73.44
2023-02-25T09:41:35.086Z,72.82
2023-02-25T09:44:29.174Z,72.80
2023-02-25T09:47:05.583Z,72.47
2023-02-25T09:50:03.490Z,71.96
2023-02-25T09:52:32.828Z,69.69
2023-02-25T09:55:24.436Z,66.64
2023-02-25T09:58:09.016Z,67.31
2023-02-25T10:00:57.285Z,65.66
2023-02-25T10:03:51.725Z,64.68
2023-02-25T10:06:30.216Z,65.19
2023-02-25T10:09:17.781Z,68.00
2023-02-25T10:12:19.400Z,67.30
2023-02-25T10:15:06.437Z,68.52
2023-02-25T10:18:00.880Z,72.69
2023-02-25T10:20:50.253Z,75.80
2023-02-25T10:23:39.878Z,74.37
2023-02-25T10:26:19.858Z,71.55
2023-02-25T10:28:55.435Z,69.32
2023-02-25T10:31:24.207Z,69.23
2023-02-25T10:33:54.237Z,70.31
2023-02-25T10:36:29.341Z,67.05
2023-02-25T10:38:58.047Z,66.69
2023-02-25T10:41:30.118Z,66.87
2023-02-25T10:43:58.627Z,67.58
2023-02-25T10:46:35.134Z,67.27
2023-02-25T10:49:16.397Z,68.19
2023-02-25T10:52:10.642Z,66.45
2023-02-25T10:54:53.369Z,67.06
2023-02-25T10:57:34.625Z,64.44
2023-02-25T11:00:13.405Z,61.17
2023-02-25T11:02:44.304Z,59.82
2023-02-25T11:05:43.768Z,58.82
2023-02-25T11:08:34.389Z,58.28
2023-02-25T11:11:13.569Z,56.86
2023-02-25T11:13:41.700Z,57.79
2023-02-25T11:16:14.056Z,55.98
2023-02-25T11:18:42.429Z,55.77
2023-02-25T11:21:13.727Z,56.47
2023-02-25T11:23:49.131Z,55.84
2023-02-25T11:26:38.254Z,57.92
2023-02-25T11:29:14.910Z,55.07
2023-02-25T11:31:44.276Z,54.24
2023-02-25T11:34:28.090Z,50.70
2023-02-25T11:37:00.249Z,52.71
2023-02-25T11:39:31.868Z,51.84
2023-02-25T11:42:23.406Z,49.21
2023-02-25T11:45:02.257Z,49.07
2023-02-25T11:47:33.911Z,50.87
2023-02-25T11:50:57.276Z,51.69
2023-02-25T11:53:45.253Z,48.63
2023-02-25T11:56:13.158Z,49.60
2023-02-25T11:59:03.156Z,49.32
2023-02-25T12:02:00.307Z,47.71
2023-02-25T12:04:34.356Z,46.73
2023-02-25T12:07:08.553Z,45.32
2023-02-25T12:10:07.030Z,42.80
2023-02-25T12:12:57.290Z,43.10
2023-02-25T12:15:57.696Z,43.27
2023-02-25T12:18:52.985Z,41.04
2023-02-25T12:21:50.519Z,39.35
2023-02-25T12:24:59.660Z,39.90
2023-02-25T12:28:08.806Z,40.88
2023-02-25T12:30:42.383Z,40.00
2023-02-25T12:33:32.107Z,40.93
2023-02-25T12:36:30.129Z,38.34
2023-02-25T12:39:25.946Z,39.50
2023-02-25T12:41:59.788Z,38.44
2023-02-25T12:44:39.311Z,37.31
2023-02-25T12:47:41.008Z,37.26
2023-02-25T12:50:27.150Z,38.43
2023-02-25T12:53:18.808Z,39.41
2023-02-25T12:56:34.224Z,39.17
2023-02-25T12:59:20.874Z,38.46
2023-02-25T13:02:12.485Z,38.01
2023-02-25T13:05:17.072Z,39.23
2023-02-25T13:08:12.653Z,37.69
2023-02-25T13:11:00.682Z,39.06
2023-02-25T13:14:14.124Z,40.34
2023-02-25T13:17:04.674Z,39.93
2023-02-25T13:20:00.660Z,43.57
2023-02-25T13:22:36.394Z,45.03
2023-02-25T13:25:23.565Z,47.94
2023-02-25T13:28:01.004Z,48.17
2023-02-25T13:30:58.332Z,48.22
2023-02-25T13:33:53.145Z,47.36
2023-02-25T13:36:53.173Z,49.52
2023-02-25T13:39:44.838Z,48.01
2023-02-25T13:42:54.474Z,49.17
2023-02-25T13:45:28.603Z,49.11
2023-02-25T13:48:17.382Z,50.83
2023-02-25T13:51:08.249Z,50.08
2023-02-25T13:54:00.715Z,50.99
2023-02-25T13:57:18.125Z,51.91
2023-02-25T14:00:24.090Z,49.65
2023-02-25T14:03:15.082Z,51.48
2023-02-25T14:06:12.814Z,50.80
2023-02-25T14:09:02.215Z,51.13
2023-02-25T14:11:37.844Z,50.44
2023-02-25T14:14:19.517Z,51.42
2023-02-25T14:17:09.813Z,51.74
2023-02-25T14:19:44.927Z,49.12
2023-02-25T14:22:36.888Z,51.30
2023-02-25T14:25:13.497Z,52.90
2023-02-25T14:28:00.302Z,53.12
2023-02-25T14:30:43.881Z,53.01
2023-02-25T14:33:19.422Z,53.45
2023-02-25T14:36:02.856Z,53.39
2023-02-25T14:39:08.503Z,53.31
2023-02-25T14:41:49.511Z,54.10
2023-02-25T14:44:27.332Z,54.32
2023-02-25T14:47:01.179Z,53.73
2023-02-25T14:49:32.562Z,55.44
2023-02-25T14:52:41.934Z,55.31
2023-02-25T14:55:46.192Z,54.32
2023-02-25T14:58:26.359Z,55.26
2023-02-25T15:01:14.917Z,56.47
2023-02-25T15:04:30.790Z,55.42
2023-02-25T15:07:44.801Z,56.56
2023-02-25T15:10:36.061Z,55.81
2023-02-25T15:13:31.736Z,57.23
2023-02-25T15:16:02.611Z,57.16
2023-02-25T15:19:25.178Z,56.07
2023-02-25T15:22:18.770Z,56.86
2023-02-25T15:24:47.975Z,57.78
2023-02-25T15:27:38.263Z,57.32
2023-02-25T15:30:12.165Z,58.10
2023-02-25T15:32:54.873Z,59.87
2023-02-25T15:35:35.286Z,60.62
2023-02-25T15:38:08.750Z,58.27
2023-02-25T15:40:51.129Z,59.14
2023-02-25T15:43:18.822Z,57.36
2023-02-25T15:46:08.934Z,57.53
2023-02-25T15:48:39.231Z,56.05
2023-02-25T15:51:31.954Z,56.65
2023-02-25T15:54:00.026Z,56.29
2023-02-25T15:56:47.583Z,57.16
2023-02-25T15:59:55.894Z,55.76
2023-02-25T16:02:27.228Z,56.16
2023-02-25T16:05:02.489Z,56.46
2023-02-25T16:07:37.993Z,56.60
2023-02-25T16:10:31.758Z,57.05
2023-02-25T16:13:01.280Z,58.71
2023-02-25T16:15:35.477Z,57.74
2023-02-25T16:18:15.685Z,58.57
2023-02-25T16:20:48.447Z,58.70
2023-02-25T16:23:17.945Z,59.65
2023-02-25T16:26:14.186Z,59.89
2023-02-25T16:29:06.494Z,60.36
2023-02-25T16:32:09.853Z,59.39
2023-02-25T16:34:52.340Z,59.54
2023-02-25T16:37:28.256Z,60.05
2023-02-25T16:39:58.298Z,60.60
2023-02-25T16:42:26.793Z,60.45
2023-02-25T16:45:02.244Z,60.29
2023-02-25T16:47:33.494Z,60.61
2023-02-25T16:50:11.796Z,60.56
2023-02-25T16:52:45.927Z,61.90
2023-02-25T16:55:21.394Z,61.49
2023-02-25T16:58:14.812Z,62.03
2023-02-25T17:00:52.668Z,62.52
2023-02-25T17:03:22.112Z,63.34
2023-02-25T17:06:18.184Z,62.94
2023-02-25T17:08:48.457Z,63.34
2023-02-25T17:11:18.985Z,64.39
2023-02-25T17:13:50.454Z,64.39
2023-02-25T17:16:30.758Z,64.35
2023-02-25T17:19:05.575Z,64.42
2023-02-25T17:21:38.405Z,64.57
2023-02-25T17:24:11.974Z,65.67
2023-02-25T17:26:42.459Z,65.60
2023-02-25T17:29:15.626Z,66.20
2023-02-25T17:31:52.876Z,65.91
2023-02-25T17:34:31.297Z,66.63
2023-02-25T17:37:03.600Z,66.65
2023-02-25T17:39:31.813Z,67.26
2023-02-25T17:42:00.457Z,67.35
2023-02-25T17:44:38.446Z,66.82
2023-02-25T17:47:09.865Z,66.78
2023-02-25T17:49:38.798Z,66.92
2023-02-25T17:52:32.198Z,65.98
2023-02-25T17:55:04.509Z,66.77
2023-02-25T17:57:34.006Z,66.60
2023-02-25T18:00:24.586Z,66.53
2023-02-25T18:03:19.629Z,67.34
2023-02-25T18:05:55.990Z,67.43
2023-02-25T18:08:26.784Z,67.90
2023-02-25T18:10:58.221Z,67.19
2023-02-25T18:13:34.073Z,67.23
2023-02-25T18:16:29.552Z,67.58
2023-02-25T18:19:00.014Z,67.66
2023-02-25T18:21:29.030Z,67.19
2023-02-25T18:23:59.441Z,66.66
2023-02-25T18:26:27.563Z,67.09
2023-02-25T18:28:57.918Z,67.06
2023-02-25T18:31:25.815Z,67.27
2023-02-25T18:33:55.207Z,67.29
2023-02-25T18:36:27.032Z,67.33
2023-02-25T18:39:00.907Z,67.13
2023-02-25T18:41:28.822Z,66.59
2023-02-25T18:43:56.942Z,67.63
2023-02-25T18:46:24.958Z,67.90
2023-02-25T18:48:53.310Z,67.93
2023-02-25T18:51:21.068Z,68.60
2023-02-25T18:53:49.130Z,68.84
2023-02-25T18:56:17.701Z,69.54
2023-02-25T18:58:45.945Z,69.71
2023-02-25T19:01:23.364Z,70.50
2023-02-25T19:03:52.375Z,69.89
2023-02-25T19:06:20.477Z,69.34
2023-02-25T19:08:49.116Z,69.10
2023-02-25T19:11:37.087Z,69.22
2023-02-25T19:14:06.852Z,69.38
2023-02-25T19:16:34.975Z,69.82
2023-02-25T19:19:03.233Z,69.11
2023-02-25T19:21:31.115Z,68.66
2023-02-25T19:23:59.219Z,69.42
2023-02-25T19:26:27.284Z,69.50
2023-02-25T19:28:55.745Z,69.89
2023-02-25T19:31:23.600Z,70.05
2023-02-25T19:33:51.660Z,69.28
2023-02-25T19:36:19.409Z,68.84
2023-02-25T19:38:47.429Z,69.49
2023-02-25T19:41:15.268Z,68.69
2023-02-25T19:43:43.406Z,68.13
2023-02-25T19:46:11.317Z,68.50
2023-02-25T19:48:39.533Z,68.12
2023-02-25T19:51:09.564Z,67.69
2023-02-25T19:53:37.790Z,68.11
2023-02-25T19:56:08.029Z,68.37
2023-02-25T19:58:36.262Z,69.06
2023-02-25T20:01:08.918Z,69.04
2023-02-25T20:03:37.203Z,69.17
2023-02-25T20:06:12.274Z,68.54
2023-02-25T20:08:41.437Z,69.14
2023-02-25T20:11:10.802Z,68.96
2023-02-25T20:13:38.903Z,69.29
2023-02-25T20:16:07.142Z,69.58
2023-02-25T20:18:35.777Z,69.43
2023-02-25T20:21:04.327Z,69.14
2023-02-25T20:23:32.440Z,69.22
2023-02-25T20:26:08.661Z,68.59
2023-02-25T20:28:37.160Z,69.33
2023-02-25T20:31:14.985Z,69.55
2023-02-25T20:33:43.869Z,68.76
2023-02-25T20:36:24.362Z,69.31
2023-02-25T20:39:13.384Z,70.40
2023-02-25T20:41:45.317Z,70.03
2023-02-25T20:44:14.554Z,70.71
2023-02-25T20:46:43.322Z,69.48
2023-02-25T20:49:14.717Z,70.20
2023-02-25T20:51:44.932Z,70.10
2023-02-25T20:54:15.166Z,69.57
2023-02-25T20:56:43.519Z,69.76
2023-02-25T20:59:13.466Z,69.87
2023-02-25T21:01:42.628Z,69.49
2023-02-25T21:04:11.384Z,70.49
2023-02-25T21:06:39.736Z,71.63
2023-02-25T21:09:08.279Z,71.61
2023-02-25T21:11:36.037Z,71.29
2023-02-25T21:14:04.284Z,71.75
2023-02-25T21:16:32.556Z,71.58
2023-02-25T21:19:01.312Z,72.24
2023-02-25T21:21:31.750Z,71.75
2023-02-25T21:23:59.827Z,71.86
2023-02-25T21:26:27.518Z,71.38
2023-02-25T21:28:55.628Z,71.02
2023-02-25T21:31:23.669Z,71.62
2023-02-25T21:33:52.018Z,70.93
2023-02-25T21:36:19.909Z,70.53
2023-02-25T21:38:47.964Z,71.04
2023-02-25T21:41:16.980Z,71.05
2023-02-25T21:43:45.382Z,71.75
2023-02-25T21:46:16.614Z,71.93
2023-02-25T21:48:47.486Z,71.49
2023-02-25T21:51:26.255Z,72.10
2023-02-25T21:53:56.691Z,72.47
2023-02-25T21:56:26.143Z,72.70
2023-02-25T21:58:59.940Z,73.63
2023-02-25T22:01:30.824Z,73.72
2023-02-25T22:03:59.426Z,75.27
2023-02-25T22:06:28.378Z,76.23
2023-02-25T22:08:57.536Z,75.38
2023-02-25T22:11:30.915Z,75.50
2023-02-25T22:14:01.107Z,74.95
2023-02-25T22:16:29.500Z,75.85
2023-02-25T22:18:58.857Z,76.68
2023-02-25T22:21:32.440Z,75.97
2023-02-25T22:24:03.035Z,75.71
2023-02-25T22:26:33.124Z,76.55
2023-02-25T22:29:04.978Z,75.79
2023-02-25T22:31:34.309Z,76.53
2023-02-25T22:34:03.080Z,76.63
2023-02-25T22:36:30.977Z,76.39
2023-02-25T22:38:59.062Z,77.44
2023-02-25T22:41:29.314Z,77.66
2023-02-25T22:43:58.847Z,77.23
2023-02-25T22:46:29.866Z,77.93
2023-02-25T22:48:58.884Z,78.34
2023-02-25T22:51:32.564Z,79.03
2023-02-25T22:54:00.986Z,79.37
2023-02-25T22:56:29.197Z,80.02
2023-02-25T22:58:57.331Z,80.00
2023-02-25T23:01:26.864Z,79.41
2023-02-25T23:03:56.143Z,78.39
2023-02-25T23:06:37.450Z,77.01
2023-02-25T23:09:11.620Z,76.51
2023-02-25T23:11:42.133Z,77.65
2023-02-25T23:14:10.969Z,77.54
2023-02-25T23:16:42.222Z,76.42
2023-02-25T23:19:14.164Z,76.18
2023-02-25T23:21:42.058Z,75.74
2023-02-25T23:24:16.469Z,74.95
2023-02-25T23:26:45.565Z,74.99
2023-02-25T23:29:13.845Z,75.41
2023-02-25T23:31:47.401Z,75.03
2023-02-25T23:34:23.620Z,75.96
2023-02-25T23:36:56.759Z,75.40
2023-02-25T23:39:25.647Z,75.02
2023-02-25T23:41:53.472Z,75.98
2023-02-25T23:44:21.569Z,77.63
2023-02-25T23:46:49.307Z,78.27
2023-02-25T23:49:18.131Z,77.99
2023-02-25T23:51:47.549Z,77.49
2023-02-25T23:54:19.216Z,78.22
2023-02-25T23:56:47.339Z,79.09
2023-02-25T23:59:16.424Z,79.35
